Time;durP1;ratioP1;P1;durP2;ratioP2;P2;SDS_P1;SDS_P2;PMS_P1;PMS_P2;Temp;Humidity;BMP_temperature;BMP_pressure;BME280_temperature;BME280_humidity;BME280_pressure;Samples;Min_cycle;Max_cycle;Signal;HPM_P1;HPM_P2
2022/08/09 00:01:21;;;;;;;4.00;1.10;;;23.00;63.50;;;;;;5075380;28;20045;-66
2022/08/09 00:03:46;;;;;;;2.70;0.75;;;23.00;63.40;;;;;;5074706;28;20051;-66
2022/08/09 00:06:12;;;;;;;2.05;0.90;;;23.00;63.50;;;;;;5075352;28;20036;-66
2022/08/09 00:08:37;;;;;;;2.08;1.00;;;23.00;63.40;;;;;;5075270;28;20503;-66
2022/08/09 00:11:03;;;;;;;1.75;0.80;;;23.00;63.50;;;;;;5074406;28;20049;-66
2022/08/09 00:13:28;;;;;;;3.70;1.08;;;23.00;63.50;;;;;;5075484;28;20051;-66
2022/08/09 00:15:54;;;;;;;2.83;0.85;;;23.00;63.50;;;;;;5074673;28;20484;-66
2022/08/09 00:18:19;;;;;;;1.42;0.70;;;23.00;63.50;;;;;;5074644;28;20044;-66
2022/08/09 00:20:45;;;;;;;1.50;0.70;;;23.00;63.50;;;;;;5075298;28;20063;-66
2022/08/09 00:23:10;;;;;;;2.42;1.08;;;23.00;63.50;;;;;;5075164;28;20045;-66
2022/08/09 00:25:36;;;;;;;2.45;0.82;;;23.00;63.50;;;;;;5074428;28;20128;-67
2022/08/09 00:28:02;;;;;;;2.00;0.75;;;22.90;63.50;;;;;;5075107;28;20044;-66
2022/08/09 00:30:28;;;;;;;1.85;0.80;;;23.00;63.50;;;;;;5075271;28;20075;-66
2022/08/09 00:32:53;;;;;;;2.60;0.90;;;22.90;63.50;;;;;;5074369;28;20040;-67
2022/08/09 00:35:19;;;;;;;2.83;0.80;;;22.90;63.50;;;;;;5075153;28;20044;-66
2022/08/09 00:37:44;;;;;;;2.03;0.75;;;22.90;63.50;;;;;;5073241;28;20045;-67
2022/08/09 00:40:10;;;;;;;2.33;1.13;;;22.90;63.50;;;;;;5073580;28;20131;-67
2022/08/09 00:42:36;;;;;;;1.92;0.90;;;22.90;63.50;;;;;;5074896;28;20132;-66
2022/08/09 00:45:03;;;;;;;1.83;0.90;;;22.90;63.50;;;;;;5073199;28;20822;-66
2022/08/09 00:47:29;;;;;;;4.00;0.80;;;22.90;63.50;;;;;;5074546;28;20044;-66
2022/08/09 00:49:54;;;;;;;2.75;1.00;;;22.90;63.50;;;;;;5074799;28;20070;-66
2022/08/09 00:52:21;;;;;;;2.22;0.90;;;22.90;63.50;;;;;;5073026;28;20045;-66
2022/08/09 00:54:48;;;;;;;0.90;0.70;;;22.90;63.50;;;;;;5073227;28;20427;-66
2022/08/09 00:57:13;;;;;;;2.15;0.68;;;22.90;63.40;;;;;;5056969;28;20059;-66
2022/08/09 00:59:39;;;;;;;2.67;0.90;;;22.90;63.50;;;;;;5073899;28;20049;-66
2022/08/09 01:02:05;;;;;;;1.65;0.90;;;22.90;63.50;;;;;;5073028;28;20051;-66
2022/08/09 01:04:42;;;;;;;2.53;0.80;;;22.90;63.50;;;;;;5073106;28;20037;-66
2022/08/09 01:07:20;;;;;;;1.25;0.80;;;22.90;63.50;;;;;;5072679;28;20059;-66
2022/08/09 01:09:59;;;;;;;2.15;1.05;;;22.90;63.50;;;;;;5073434;28;20190;-67
2022/08/09 01:12:31;;;;;;;1.70;0.70;;;22.90;63.50;;;;;;5073488;28;20049;-66
2022/08/09 01:15:04;;;;;;;1.73;1.00;;;22.90;63.50;;;;;;5073661;28;20040;-66
2022/08/09 01:17:34;;;;;;;1.30;0.63;;;22.90;63.50;;;;;;5056206;28;20067;-66
2022/08/09 01:20:20;;;;;;;2.33;0.80;;;22.80;63.40;;;;;;5073970;28;20048;-67
2022/08/09 01:23:14;;;;;;;1.83;0.70;;;22.80;63.40;;;;;;5073458;28;20080;-67
2022/08/09 01:25:45;;;;;;;1.95;0.70;;;22.80;63.40;;;;;;5074105;28;20053;-66
2022/08/09 01:28:11;;;;;;;1.30;0.80;;;22.80;63.50;;;;;;5072189;28;20049;-66
2022/08/09 01:30:37;;;;;;;1.70;0.75;;;22.80;63.50;;;;;;5072776;28;20055;-66
2022/08/09 01:33:03;;;;;;;1.17;0.70;;;22.80;63.50;;;;;;5072658;28;20048;-66
2022/08/09 01:35:34;;;;;;;2.97;0.70;;;22.80;63.50;;;;;;5072065;28;20128;-66
2022/08/09 01:38:03;;;;;;;1.75;0.70;;;22.80;63.50;;;;;;5072458;28;20053;-66
2022/08/09 01:40:29;;;;;;;1.10;0.80;;;22.80;63.60;;;;;;5074025;28;20097;-66
2022/08/09 01:42:54;;;;;;;2.38;1.05;;;22.80;63.60;;;;;;5071752;28;20041;-66
2022/08/09 01:45:20;;;;;;;2.22;1.05;;;22.80;63.60;;;;;;5072695;28;20163;-66
2022/08/09 01:47:45;;;;;;;1.55;0.80;;;22.80;63.60;;;;;;5072361;28;20076;-66
2022/08/09 01:50:11;;;;;;;1.48;0.70;;;22.80;63.60;;;;;;5072894;28;20059;-66
2022/08/09 01:52:37;;;;;;;1.80;0.88;;;22.80;63.60;;;;;;5072462;28;20048;-66
2022/08/09 01:55:02;;;;;;;2.28;0.82;;;22.80;63.60;;;;;;5071659;28;20413;-66
2022/08/09 01:57:36;;;;;;;1.90;0.88;;;22.80;63.60;;;;;;5071760;28;20133;-66
2022/08/09 02:00:03;;;;;;;1.90;0.70;;;22.80;63.60;;;;;;5072204;28;20032;-66
2022/08/09 02:02:29;;;;;;;1.35;0.70;;;22.80;63.60;;;;;;5052208;28;20132;-66
2022/08/09 02:04:55;;;;;;;2.28;0.90;;;22.80;63.60;;;;;;5051007;28;20120;-66
2022/08/09 02:07:20;;;;;;;2.28;0.95;;;22.80;63.60;;;;;;5068717;28;20044;-66
2022/08/09 02:09:55;;;;;;;1.95;0.80;;;22.80;63.60;;;;;;5050879;28;20128;-67
2022/08/09 02:12:21;;;;;;;3.40;0.80;;;22.80;63.60;;;;;;5051994;28;20052;-66
2022/08/09 02:14:49;;;;;;;1.73;0.82;;;22.70;63.50;;;;;;5033987;28;20041;-66
2022/08/09 02:17:15;;;;;;;;;;;22.70;63.60;;;;;;5052696;28;20041;-66
2022/08/09 02:19:41;;;;;;;2.08;0.75;;;22.70;63.40;;;;;;5051839;28;19916;-66
2022/08/09 02:22:19;;;;;;;2.65;0.93;;;22.70;63.60;;;;;;5053052;28;20094;-66
2022/08/09 02:24:46;;;;;;;1.45;0.70;;;22.70;63.50;;;;;;5050497;28;20041;-66
2022/08/09 02:27:12;;;;;;;1.80;0.90;;;22.70;63.60;;;;;;5051518;28;20542;-66
2022/08/09 02:29:40;;;;;;;2.25;1.00;;;22.70;63.60;;;;;;5068454;28;20052;-66
2022/08/09 02:32:07;;;;;;;;;;;22.70;63.60;;;;;;5034537;28;20508;-66
2022/08/09 02:34:32;;;;;;;2.28;0.80;;;22.70;63.50;;;;;;5051340;28;19982;-66
2022/08/09 02:37:00;;;;;;;1.67;0.70;;;22.70;63.60;;;;;;5051318;28;20045;-66
2022/08/09 02:39:30;;;;;;;2.67;0.80;;;22.70;63.70;;;;;;5051046;28;20052;-66
2022/08/09 02:41:57;;;;;;;2.13;0.70;;;22.70;63.60;;;;;;5067838;28;20072;-66
2022/08/09 02:44:25;;;;;;;1.83;0.70;;;22.70;63.60;;;;;;5068026;28;20131;-66
2022/08/09 02:46:51;;;;;;;4.03;0.80;;;22.70;63.60;;;;;;5051631;28;20115;-66
2022/08/09 02:49:18;;;;;;;1.15;0.70;;;22.70;63.60;;;;;;5034770;28;20380;-66
2022/08/09 02:51:44;;;;;;;2.17;0.80;;;22.70;63.60;;;;;;5052049;28;20041;-66
2022/08/09 02:54:12;;;;;;;2.05;0.88;;;22.70;63.60;;;;;;5050952;28;20080;-66
2022/08/09 02:56:40;;;;;;;1.92;0.70;;;22.70;63.60;;;;;;5051274;28;20475;-66
2022/08/09 02:59:05;;;;;;;2.90;1.08;;;22.70;63.60;;;;;;5050329;28;20074;-67
2022/08/09 03:01:31;;;;;;;1.00;0.70;;;22.70;63.60;;;;;;5067694;28;20467;-66
2022/08/09 03:03:57;;;;;;;1.98;0.90;;;22.70;63.60;;;;;;5062268;28;20185;-66
2022/08/09 03:06:22;;;;;;;1.88;0.85;;;22.60;63.60;;;;;;5070668;28;20051;-66
2022/08/09 03:08:48;;;;;;;1.85;0.80;;;22.60;63.60;;;;;;5070971;28;20090;-66
2022/08/09 03:11:15;;;;;;;3.22;1.10;;;22.60;63.60;;;;;;5071338;28;20120;-66
2022/08/09 03:13:41;;;;;;;2.45;0.90;;;22.60;63.60;;;;;;5070573;28;20045;-66
2022/08/09 03:16:07;;;;;;;1.30;0.70;;;22.60;63.60;;;;;;5070634;28;20455;-66
2022/08/09 03:18:34;;;;;;;0.85;0.68;;;22.60;63.60;;;;;;5071336;28;20045;-66
2022/08/09 03:20:59;;;;;;;1.10;0.85;;;22.60;63.60;;;;;;5053675;28;20052;-66
2022/08/09 03:23:25;;;;;;;1.42;0.63;;;22.60;63.60;;;;;;5071221;28;20178;-67
2022/08/09 03:25:51;;;;;;;2.03;0.70;;;22.60;63.60;;;;;;5071567;28;20427;-66
2022/08/09 03:28:17;;;;;;;1.92;0.80;;;22.60;63.60;;;;;;5070671;28;20050;-66
2022/08/09 03:30:42;;;;;;;1.00;0.80;;;22.60;64.20;;;;;;5070428;28;20048;-66
2022/08/09 03:33:08;;;;;;;2.15;0.80;;;22.60;63.60;;;;;;5070708;28;20056;-66
2022/08/09 03:35:34;;;;;;;1.42;0.80;;;22.60;63.60;;;;;;5070549;28;20538;-66
2022/08/09 03:38:00;;;;;;;1.35;0.60;;;22.60;63.60;;;;;;5053980;28;20052;-66
2022/08/09 03:40:26;;;;;;;1.88;0.90;;;22.60;63.60;;;;;;5070890;28;20040;-66
2022/08/09 03:42:51;;;;;;;1.52;0.90;;;22.60;63.60;;;;;;5071427;28;20102;-67
2022/08/09 03:45:17;;;;;;;2.80;0.80;;;22.60;63.60;;;;;;5071921;28;20044;-66
2022/08/09 03:47:43;;;;;;;1.23;0.75;;;22.60;63.60;;;;;;5071697;28;20040;-67
2022/08/09 03:50:08;;;;;;;1.98;0.77;;;22.50;63.60;;;;;;5071488;28;20044;-66
2022/08/09 03:52:34;;;;;;;1.27;0.70;;;22.60;63.60;;;;;;5070708;28;20396;-66
2022/08/09 03:55:02;;;;;;;1.75;0.70;;;22.60;63.60;;;;;;5070370;28;20036;-66
2022/08/09 03:57:28;;;;;;;1.55;0.90;;;22.50;63.60;;;;;;5070025;28;20037;-66
2022/08/09 03:59:53;;;;;;;1.60;0.95;;;22.50;63.60;;;;;;5070167;28;20041;-67
2022/08/09 04:02:19;;;;;;;1.65;0.82;;;22.50;63.60;;;;;;5054948;28;20060;-66
2022/08/09 04:04:45;;;;;;;2.30;0.93;;;22.50;63.60;;;;;;5069248;28;20041;-67
2022/08/09 04:07:10;;;;;;;2.72;0.90;;;22.50;63.60;;;;;;5070010;28;20052;-67
2022/08/09 04:09:36;;;;;;;2.55;0.80;;;22.50;63.60;;;;;;5069288;28;20036;-67
2022/08/09 04:12:07;;;;;;;2.90;0.80;;;22.50;63.60;;;;;;5071680;28;20045;-67
2022/08/09 04:14:33;;;;;;;1.25;0.60;;;22.50;63.60;;;;;;5070317;28;20052;-66
2022/08/09 04:16:58;;;;;;;3.08;0.90;;;22.50;63.60;;;;;;5069685;28;20052;-67
2022/08/09 04:19:24;;;;;;;2.35;0.85;;;22.50;63.60;;;;;;5071646;28;20400;-67
2022/08/09 04:21:49;;;;;;;1.95;0.70;;;22.50;63.50;;;;;;5070223;28;20049;-67
2022/08/09 04:24:15;;;;;;;1.70;0.73;;;22.50;63.50;;;;;;5069493;28;20403;-67
2022/08/09 04:26:40;;;;;;;0.90;0.70;;;22.50;63.50;;;;;;5071691;28;20052;-67
2022/08/09 04:29:06;;;;;;;1.15;0.70;;;22.50;64.10;;;;;;5071178;28;20052;-67
2022/08/09 04:31:32;;;;;;;1.23;0.90;;;22.50;63.60;;;;;;5070701;28;20048;-67
2022/08/09 04:33:57;;;;;;;2.60;0.80;;;22.50;63.60;;;;;;5071253;28;20055;-67
2022/08/09 04:36:24;;;;;;;1.20;0.75;;;22.50;63.60;;;;;;5071229;28;20048;-67
2022/08/09 04:38:50;;;;;;;1.95;0.80;;;22.50;63.60;;;;;;5072693;28;20036;-67
2022/08/09 04:41:15;;;;;;;1.33;0.70;;;22.50;63.60;;;;;;5075055;28;20051;-67
2022/08/09 04:43:41;;;;;;;1.08;0.70;;;22.50;63.50;;;;;;5074735;28;20040;-67
2022/08/09 04:46:07;;;;;;;1.05;0.70;;;22.50;63.60;;;;;;5073005;28;20072;-67
2022/08/09 04:48:32;;;;;;;1.30;0.80;;;22.50;63.60;;;;;;5074902;28;20526;-67
2022/08/09 04:50:58;;;;;;;1.73;0.85;;;22.50;63.60;;;;;;5074626;28;20059;-67
2022/08/09 04:53:23;;;;;;;1.77;1.10;;;22.40;63.50;;;;;;5073327;28;20404;-67
2022/08/09 04:55:49;;;;;;;1.27;0.90;;;22.40;63.50;;;;;;5074629;28;20368;-67
2022/08/09 04:58:14;;;;;;;1.85;0.80;;;22.40;63.50;;;;;;5074427;28;20420;-67
2022/08/09 05:00:40;;;;;;;0.80;0.60;;;22.40;63.50;;;;;;5074042;28;20053;-67
2022/08/09 05:03:06;;;;;;;1.20;0.70;;;22.40;63.50;;;;;;5073206;28;20040;-67
2022/08/09 05:05:31;;;;;;;2.65;0.85;;;22.40;63.50;;;;;;5074092;28;20043;-67
2022/08/09 05:07:57;;;;;;;1.27;0.80;;;22.40;63.50;;;;;;5073014;28;20048;-67
2022/08/09 05:10:23;;;;;;;1.33;0.77;;;22.50;63.50;;;;;;5074640;28;20048;-67
2022/08/09 05:12:48;;;;;;;1.48;0.70;;;22.50;63.60;;;;;;5071954;28;20044;-67
2022/08/09 05:15:14;;;;;;;1.13;0.80;;;22.50;63.60;;;;;;5074387;28;20045;-67
2022/08/09 05:17:39;;;;;;;1.17;0.80;;;22.50;63.70;;;;;;5074224;28;20076;-67
2022/08/09 05:20:06;;;;;;;1.17;0.70;;;22.50;63.70;;;;;;5073457;28;20029;-67
2022/08/09 05:22:31;;;;;;;1.23;0.80;;;22.50;63.70;;;;;;5074167;28;20090;-67
2022/08/09 05:24:57;;;;;;;1.23;0.68;;;22.50;63.80;;;;;;5074024;28;20037;-67
2022/08/09 05:27:22;;;;;;;1.45;0.82;;;22.50;63.90;;;;;;5071574;28;20044;-67
2022/08/09 05:29:48;;;;;;;1.10;0.80;;;22.50;64.00;;;;;;5072645;28;20044;-67
2022/08/09 05:32:13;;;;;;;1.60;0.73;;;22.50;63.90;;;;;;5074048;28;20056;-67
2022/08/09 05:34:39;;;;;;;1.00;0.80;;;22.50;63.90;;;;;;5072392;28;20037;-67
2022/08/09 05:37:05;;;;;;;2.97;0.90;;;22.50;63.80;;;;;;5072349;28;20128;-66
2022/08/09 05:39:31;;;;;;;2.15;0.90;;;22.50;63.70;;;;;;5073906;28;20033;-66
2022/08/09 05:41:57;;;;;;;3.08;1.00;;;22.50;63.70;;;;;;5073083;28;20037;-66
2022/08/09 05:44:22;;;;;;;1.63;0.80;;;22.50;63.60;;;;;;5074018;28;20479;-67
2022/08/09 05:46:48;;;;;;;2.10;1.00;;;22.50;63.60;;;;;;5072102;28;20097;-66
2022/08/09 05:49:13;;;;;;;0.98;0.80;;;22.60;63.70;;;;;;5071715;28;20127;-66
2022/08/09 05:51:39;;;;;;;3.13;0.90;;;22.50;63.60;;;;;;5074079;28;20114;-66
2022/08/09 05:54:04;;;;;;;3.50;0.85;;;22.60;63.70;;;;;;5073148;28;20033;-67
2022/08/09 05:56:30;;;;;;;4.47;1.10;;;22.60;63.70;;;;;;5072938;28;20047;-66
2022/08/09 05:58:58;;;;;;;2.13;0.80;;;22.60;63.80;;;;;;5072006;28;20036;-66
2022/08/09 06:01:25;;;;;;;2.17;0.73;;;22.60;63.80;;;;;;5070857;28;20036;-66
2022/08/09 06:03:50;;;;;;;4.63;1.13;;;22.60;63.80;;;;;;5069105;28;20123;-66
2022/08/09 06:06:16;;;;;;;2.55;0.93;;;22.60;63.90;;;;;;5073190;28;20127;-67
2022/08/09 06:08:41;;;;;;;1.83;0.85;;;22.70;64.00;;;;;;5073089;28;20474;-66
2022/08/09 06:11:07;;;;;;;1.92;0.82;;;22.60;63.90;;;;;;5071115;28;20040;-66
2022/08/09 06:13:33;;;;;;;2.10;0.90;;;22.60;63.80;;;;;;5073678;28;20036;-66
2022/08/09 06:15:58;;;;;;;12.77;2.25;;;22.60;63.70;;;;;;5072318;28;20113;-66
2022/08/09 06:18:24;;;;;;;11.95;1.40;;;22.60;63.40;;;;;;5073379;28;20446;-66
2022/08/09 06:20:50;;;;;;;11.68;1.70;;;22.60;63.40;;;;;;5091305;28;20036;-66
2022/08/09 06:23:16;;;;;;;11.95;1.40;;;22.60;63.40;;;;;;5092688;28;20041;-66
2022/08/09 06:25:41;;;;;;;11.63;1.25;;;22.60;63.60;;;;;;5093151;28;20394;-66
2022/08/09 06:28:07;;;;;;;12.40;1.80;;;22.60;63.60;;;;;;5093251;28;20487;-66
2022/08/09 06:30:33;;;;;;;6.63;1.40;;;22.60;63.60;;;;;;5092562;28;20535;-66
2022/08/09 06:32:58;;;;;;;7.97;1.13;;;22.60;63.60;;;;;;5092811;28;20403;-66
2022/08/09 06:35:24;;;;;;;6.60;1.10;;;22.60;63.70;;;;;;5093098;28;20483;-66
2022/08/09 06:37:49;;;;;;;6.13;1.10;;;22.60;63.60;;;;;;5091937;28;20051;-66
2022/08/09 06:40:15;;;;;;;5.10;1.10;;;22.60;63.60;;;;;;5093311;28;20109;-66
2022/08/09 06:42:41;;;;;;;4.68;0.93;;;22.60;63.50;;;;;;5093054;28;20039;-66
2022/08/09 06:45:07;;;;;;;10.02;1.10;;;22.70;63.50;;;;;;5092316;28;20047;-66
2022/08/09 06:47:33;;;;;;;4.97;0.98;;;22.60;63.40;;;;;;5092882;28;20040;-66
2022/08/09 06:49:59;;;;;;;6.35;1.20;;;22.70;63.40;;;;;;5092116;28;20040;-64
2022/08/09 06:52:24;;;;;;;5.55;1.20;;;22.60;63.40;;;;;;5092398;28;20052;-66
2022/08/09 06:54:50;;;;;;;6.95;1.30;;;22.60;63.50;;;;;;5092580;28;20132;-66
2022/08/09 06:57:15;;;;;;;5.07;1.75;;;22.60;63.50;;;;;;5092764;28;20097;-66
2022/08/09 06:59:41;;;;;;;6.32;1.50;;;22.60;63.30;;;;;;5092350;28;20078;-67
2022/08/09 07:02:07;;;;;;;4.22;1.38;;;22.60;63.20;;;;;;5092155;28;20055;-66
2022/08/09 07:04:32;;;;;;;4.22;1.65;;;22.60;63.00;;;;;;5091179;28;20032;-68
2022/08/09 07:06:58;;;;;;;4.25;1.30;;;22.60;62.90;;;;;;5090534;28;20048;-67
2022/08/09 07:09:24;;;;;;;4.25;1.58;;;22.60;62.80;;;;;;5086977;28;20123;-66
2022/08/09 07:11:49;;;;;;;4.57;1.13;;;22.50;62.70;;;;;;5071504;28;20087;-66
2022/08/09 07:14:16;;;;;;;6.18;0.93;;;22.50;62.80;;;;;;5070030;28;20101;-66
2022/08/09 07:16:43;;;;;;;5.40;0.97;;;22.50;62.90;;;;;;5072164;28;20119;-66
2022/08/09 07:19:11;;;;;;;2.53;1.05;;;22.50;63.00;;;;;;5069799;28;20064;-66
2022/08/09 07:21:38;;;;;;;4.07;0.88;;;22.50;63.00;;;;;;5069618;28;20040;-67
2022/08/09 07:24:04;;;;;;;7.82;0.95;;;22.50;63.10;;;;;;5071633;28;20052;-66
2022/08/09 07:26:29;;;;;;;5.78;0.90;;;22.50;63.20;;;;;;5078058;28;20044;-66
2022/08/09 07:28:55;;;;;;;4.25;1.10;;;22.60;63.30;;;;;;5070074;28;20037;-67
2022/08/09 07:31:21;;;;;;;2.38;0.90;;;22.60;63.30;;;;;;5070336;28;20056;-66
2022/08/09 07:33:46;;;;;;;3.88;0.80;;;22.60;63.30;;;;;;5069883;28;20083;-66
2022/08/09 07:36:13;;;;;;;4.10;0.90;;;22.60;63.40;;;;;;5058456;28;20079;-66
2022/08/09 07:38:39;;;;;;;4.28;0.93;;;22.60;63.30;;;;;;5068609;28;20102;-64
2022/08/09 07:41:04;;;;;;;2.70;0.80;;;22.60;63.40;;;;;;5051102;28;20049;-68
2022/08/09 07:43:30;;;;;;;5.22;1.02;;;22.60;63.40;;;;;;5052733;28;20396;-67
2022/08/09 07:45:56;;;;;;;3.25;0.80;;;22.60;63.40;;;;;;5068452;28;20056;-67
2022/08/09 07:48:22;;;;;;;3.67;0.90;;;22.60;64.00;;;;;;5071074;28;20057;-67
2022/08/09 07:50:47;;;;;;;4.80;1.25;;;22.60;63.50;;;;;;5071509;28;20043;-67
2022/08/09 07:53:13;;;;;;;2.65;1.73;;;22.70;63.40;;;;;;5071727;28;20052;-68
2022/08/09 07:55:39;;;;;;;3.55;1.00;;;22.70;63.50;;;;;;5070036;28;20044;-67
2022/08/09 07:58:04;;;;;;;3.72;0.80;;;22.70;63.50;;;;;;5071789;28;20060;-68
2022/08/09 08:00:30;;;;;;;2.72;0.80;;;22.70;63.50;;;;;;5070311;28;20037;-68
2022/08/09 08:02:56;;;;;;;2.35;0.85;;;22.70;63.50;;;;;;5070878;28;20488;-68
2022/08/09 08:05:23;;;;;;;3.30;0.82;;;22.70;63.40;;;;;;5070492;28;20036;-67
2022/08/09 08:07:48;;;;;;;3.08;1.05;;;22.70;63.40;;;;;;5071091;28;20484;-67
2022/08/09 08:10:14;;;;;;;2.30;0.60;;;22.70;63.20;;;;;;5071189;28;20135;-67
2022/08/09 08:12:41;;;;;;;3.15;1.02;;;22.70;63.20;;;;;;5086927;28;20079;-66
2022/08/09 08:15:08;;;;;;;2.00;0.77;;;22.70;63.00;;;;;;5093905;28;20425;-66
2022/08/09 08:17:33;;;;;;;3.05;0.70;;;22.70;63.00;;;;;;5095163;28;20044;-66
2022/08/09 08:19:59;;;;;;;2.65;1.00;;;22.70;62.90;;;;;;5094341;28;20138;-66
2022/08/09 08:22:25;;;;;;;3.75;0.90;;;22.70;62.70;;;;;;5093759;28;20392;-66
2022/08/09 08:24:54;;;;;;;2.28;1.02;;;22.70;62.60;;;;;;5095564;28;20040;-66
2022/08/09 08:27:24;;;;;;;2.30;0.75;;;22.70;62.50;;;;;;5079349;28;20137;-66
2022/08/09 08:29:50;;;;;;;3.30;0.88;;;22.70;62.40;;;;;;5073748;28;20065;-66
2022/08/09 08:32:16;;;;;;;2.60;0.90;;;22.70;62.30;;;;;;5078432;28;20052;-66
2022/08/09 08:34:41;;;;;;;2.47;0.80;;;22.70;62.20;;;;;;5093396;28;20092;-66
2022/08/09 08:37:07;;;;;;;3.08;1.13;;;22.70;62.00;;;;;;5073878;28;20056;-66
2022/08/09 08:39:32;;;;;;;3.25;0.60;;;22.70;62.00;;;;;;5075007;28;20049;-66
2022/08/09 08:41:58;;;;;;;3.42;0.80;;;22.70;62.00;;;;;;5074424;28;20135;-66
2022/08/09 08:44:24;;;;;;;2.75;1.30;;;22.70;61.90;;;;;;5072753;28;20059;-67
2022/08/09 08:46:49;;;;;;;3.83;0.80;;;22.70;61.80;;;;;;5074145;28;20036;-67
2022/08/09 08:49:15;;;;;;;3.60;0.75;;;22.70;61.80;;;;;;5073039;28;20078;-67
2022/08/09 08:51:40;;;;;;;2.63;0.70;;;22.70;61.80;;;;;;5070129;28;20063;-67
2022/08/09 08:54:06;;;;;;;2.55;0.80;;;22.70;61.80;;;;;;5053087;28;20041;-67
2022/08/09 08:56:38;;;;;;;3.05;0.60;;;22.70;61.70;;;;;;5056747;28;20045;-66
2022/08/09 08:59:08;;;;;;;3.08;0.63;;;22.70;61.60;;;;;;5073820;28;20028;-67
2022/08/09 09:01:34;;;;;;;2.22;0.90;;;22.70;61.60;;;;;;5074848;28;20050;-66
2022/08/09 09:04:01;;;;;;;2.67;0.80;;;22.70;61.50;;;;;;5072825;28;20086;-66
2022/08/09 09:06:32;;;;;;;2.40;0.60;;;22.70;61.30;;;;;;5074290;28;20048;-66
2022/08/09 09:08:57;;;;;;;2.50;0.60;;;22.70;61.20;;;;;;5074233;28;20439;-66
2022/08/09 09:11:23;;;;;;;0.57;0.40;;;22.70;61.10;;;;;;5056163;28;20496;-66
2022/08/09 09:13:49;;;;;;;0.98;0.60;;;22.70;60.90;;;;;;5072213;28;20492;-66
2022/08/09 09:16:15;;;;;;;1.90;1.10;;;22.70;60.80;;;;;;5073165;28;20040;-65
2022/08/09 09:18:40;;;;;;;1.77;0.57;;;22.70;60.70;;;;;;5073819;28;20044;-66
2022/08/09 09:21:07;;;;;;;2.40;0.90;;;22.70;60.70;;;;;;5072820;28;20098;-66
2022/08/09 09:23:42;;;;;;;3.10;0.60;;;22.70;60.60;;;;;;5074009;28;20476;-66
2022/08/09 09:26:08;;;;;;;1.30;0.70;;;22.70;60.60;;;;;;5073574;28;20051;-66
2022/08/09 09:28:34;;;;;;;3.75;0.70;;;22.70;60.50;;;;;;5074504;28;20048;-66
2022/08/09 09:31:00;;;;;;;1.15;0.70;;;22.70;60.30;;;;;;5073389;28;20105;-66
2022/08/09 09:33:35;;;;;;;3.03;0.80;;;22.70;60.30;;;;;;5073905;28;20061;-67
2022/08/09 09:36:03;;;;;;;2.50;0.70;;;22.70;60.10;;;;;;5073872;28;20044;-67
2022/08/09 09:38:51;;;;;;;2.40;0.60;;;22.70;60.10;;;;;;5073682;28;20408;-67
2022/08/09 09:41:34;;;;;;;2.58;0.70;;;22.70;60.10;;;;;;5073429;28;20303;-67
2022/08/09 09:44:05;;;;;;;2.78;0.73;;;22.70;60.20;;;;;;5072791;28;20049;-67
2022/08/09 09:46:37;;;;;;;1.30;0.73;;;22.70;60.20;;;;;;5073764;28;20480;-67
2022/08/09 09:49:05;;;;;;;0.98;0.60;;;22.70;60.30;;;;;;5072991;28;20036;-67
2022/08/09 09:51:31;;;;;;;1.80;0.63;;;22.70;60.40;;;;;;5073600;28;20048;-67
2022/08/09 09:54:21;;;;;;;2.67;0.50;;;22.70;60.40;;;;;;5072577;28;20385;-67
2022/08/09 09:56:48;;;;;;;2.05;0.80;;;22.80;60.60;;;;;;5073113;28;20044;-66
2022/08/09 09:59:19;;;;;;;1.77;0.60;;;22.70;60.60;;;;;;5088774;28;20044;-66
2022/08/09 10:01:45;;;;;;;1.48;0.60;;;22.70;60.70;;;;;;5092861;28;20564;-68
2022/08/09 10:04:15;;;;;;;1.20;0.75;;;22.80;60.80;;;;;;5093776;28;20040;-66
2022/08/09 10:06:42;;;;;;;2.05;0.68;;;22.80;60.90;;;;;;5092361;28;20044;-67
2022/08/09 10:09:08;;;;;;;2.20;1.10;;;22.80;60.90;;;;;;5076800;28;20029;-65
2022/08/09 10:11:34;;;;;;;2.15;0.70;;;22.80;61.20;;;;;;5072908;28;20541;-66
2022/08/09 10:13:59;;;;;;;2.50;0.60;;;22.80;61.20;;;;;;5072550;28;20052;-66
2022/08/09 10:16:33;;;;;;;4.97;0.70;;;22.80;61.40;;;;;;5071719;28;20040;-66
2022/08/09 10:19:03;;;;;;;1.92;0.65;;;22.80;61.40;;;;;;5073207;28;20045;-66
2022/08/09 10:21:29;;;;;;;4.00;0.80;;;22.80;61.30;;;;;;5071773;28;20384;-66
2022/08/09 10:23:55;;;;;;;3.03;0.70;;;22.90;61.50;;;;;;5085083;28;20071;-66
2022/08/09 10:26:22;;;;;;;5.25;1.10;;;22.80;62.20;;;;;;5093112;28;20434;-65
2022/08/09 10:28:47;;;;;;;1.65;0.85;;;22.90;61.70;;;;;;5082789;28;20040;-67
2022/08/09 10:31:13;;;;;;;5.47;0.70;;;22.90;61.80;;;;;;5072040;28;20057;-65
2022/08/09 10:33:39;;;;;;;3.97;0.60;;;22.90;61.90;;;;;;5072716;28;20055;-72
2022/08/09 10:36:06;;;;;;;3.38;0.65;;;22.90;62.00;;;;;;5071077;28;20102;-66
2022/08/09 10:38:32;;;;;;;2.45;0.70;;;22.90;61.90;;;;;;5072616;28;20399;-66
2022/08/09 10:40:57;;;;;;;2.60;0.82;;;22.90;61.90;;;;;;5072137;28;20559;-67
2022/08/09 10:43:24;;;;;;;3.40;0.70;;;22.90;61.90;;;;;;5071394;28;20111;-66
2022/08/09 10:45:49;;;;;;;1.45;0.90;;;23.00;61.80;;;;;;5054160;28;20036;-66
2022/08/09 10:48:35;;;;;;;2.78;0.75;;;22.90;61.70;;;;;;5070673;28;20049;-67
2022/08/09 10:51:18;;;;;;;1.48;0.60;;;22.90;61.60;;;;;;5050749;28;20049;-67
2022/08/09 10:53:58;;;;;;;1.27;0.60;;;23.00;61.50;;;;;;5035332;28;20041;-67
2022/08/09 10:56:29;;;;;;;4.65;0.95;;;23.00;61.40;;;;;;5051224;28;20041;-67
2022/08/09 10:58:56;;;;;;;2.97;0.60;;;22.90;61.30;;;;;;5050364;28;20138;-67
2022/08/09 11:01:31;;;;;;;1.05;0.68;;;23.00;61.40;;;;;;5052518;28;20053;-67
2022/08/09 11:04:24;;;;;;;1.52;0.70;;;23.00;61.40;;;;;;5052062;28;20056;-67
2022/08/09 11:07:09;;;;;;;1.48;0.63;;;23.00;61.40;;;;;;5050850;28;20512;-66
2022/08/09 11:09:38;;;;;;;1.35;0.70;;;23.00;61.40;;;;;;5052032;28;20044;-66
2022/08/09 11:12:36;;;;;;;1.27;0.63;;;23.00;61.40;;;;;;5056891;28;20050;-67
2022/08/09 11:15:21;;;;;;;1.63;0.70;;;23.00;61.40;;;;;;5056467;28;20049;-67
2022/08/09 11:17:48;;;;;;;1.35;0.65;;;23.00;61.50;;;;;;5069848;28;20040;-66
2022/08/09 11:20:14;;;;;;;1.90;0.70;;;23.00;61.50;;;;;;5071081;28;20037;-66
2022/08/09 11:22:39;;;;;;;1.42;0.60;;;23.00;61.50;;;;;;5070442;28;20044;-67
2022/08/09 11:25:06;;;;;;;1.75;0.98;;;23.00;61.50;;;;;;5071409;28;20047;-69
2022/08/09 11:27:37;;;;;;;2.35;0.60;;;23.00;61.50;;;;;;5071606;28;20048;-66
2022/08/09 11:30:09;;;;;;;3.15;0.60;;;23.00;61.40;;;;;;5070438;28;20044;-62
2022/08/09 11:33:12;;;;;;;1.35;0.70;;;23.00;61.20;;;;;;5069548;28;20747;-67
2022/08/09 11:35:57;;;;;;;1.30;0.70;;;23.00;61.10;;;;;;5069184;28;20053;-67
2022/08/09 11:38:30;;;;;;;3.20;0.80;;;23.00;61.00;;;;;;5070946;28;20044;-67
2022/08/09 11:40:56;;;;;;;1.35;0.57;;;23.00;61.10;;;;;;5070553;28;20397;-67
2022/08/09 11:43:25;;;;;;;2.30;0.70;;;23.00;61.00;;;;;;5070876;28;20499;-66
2022/08/09 11:45:54;;;;;;;2.38;0.60;;;23.00;61.10;;;;;;5070881;28;20492;-65
2022/08/09 11:48:23;;;;;;;1.88;0.63;;;23.00;61.30;;;;;;5074043;28;20055;-65
2022/08/09 11:50:58;;;;;;;2.28;0.70;;;23.10;61.40;;;;;;5075274;28;20165;-69
2022/08/09 11:53:39;;;;;;;0.90;0.60;;;23.10;61.50;;;;;;5075076;28;20129;-66
2022/08/09 11:56:13;;;;;;;6.53;0.93;;;23.10;61.30;;;;;;5073962;28;20048;-65
2022/08/09 11:58:43;;;;;;;2.05;0.65;;;23.10;61.40;;;;;;5075414;28;20400;-65
2022/08/09 12:01:09;;;;;;;1.48;0.60;;;23.10;61.60;;;;;;5075401;28;20048;-66
2022/08/09 12:03:35;;;;;;;1.85;0.70;;;23.10;61.40;;;;;;5075845;28;20318;-66
2022/08/09 12:06:02;;;;;;;2.75;0.70;;;23.10;61.40;;;;;;5075288;28;20125;-66
2022/08/09 12:08:28;;;;;;;2.50;0.70;;;23.10;61.40;;;;;;5073940;28;20059;-65
2022/08/09 12:10:58;;;;;;;2.35;0.77;;;23.10;61.50;;;;;;5074107;28;20032;-66
2022/08/09 12:13:45;;;;;;;1.77;0.63;;;23.10;61.50;;;;;;5075599;28;20040;-65
2022/08/09 12:16:16;;;;;;;1.55;0.50;;;23.10;61.50;;;;;;5075353;28;20080;-65
2022/08/09 12:18:43;;;;;;;1.77;0.50;;;23.10;61.50;;;;;;5075409;28;20841;-65
2022/08/09 12:21:09;;;;;;;2.08;0.60;;;23.20;61.60;;;;;;5075147;28;20040;-66
2022/08/09 12:23:42;;;;;;;1.40;0.60;;;23.10;61.60;;;;;;5075013;28;20059;-66
2022/08/09 12:26:07;;;;;;;1.58;0.60;;;23.10;61.60;;;;;;5074815;28;20547;-66
2022/08/09 12:28:33;;;;;;;1.42;0.77;;;23.10;61.60;;;;;;5074391;28;20128;-66
2022/08/09 12:31:00;;;;;;;0.90;0.50;;;23.20;61.70;;;;;;5074621;28;20135;-65
2022/08/09 12:33:25;;;;;;;2.17;0.68;;;23.20;61.70;;;;;;5073620;28;20119;-66
2022/08/09 12:36:05;;;;;;;3.65;0.68;;;23.10;61.70;;;;;;5074472;28;20167;-65
2022/08/09 12:38:32;;;;;;;1.52;0.60;;;23.20;61.80;;;;;;5075025;28;20049;-65
2022/08/09 12:40:58;;;;;;;0.65;0.50;;;23.20;61.80;;;;;;5074687;28;20117;-65
2022/08/09 12:43:25;;;;;;;1.42;0.80;;;23.20;62.40;;;;;;5074835;28;20075;-65
2022/08/09 12:45:50;;;;;;;3.00;0.85;;;23.20;61.70;;;;;;5074695;28;20052;-65
2022/08/09 12:48:16;;;;;;;1.60;0.60;;;23.20;61.70;;;;;;5073656;28;20045;-65
2022/08/09 12:50:42;;;;;;;3.63;0.68;;;23.20;61.60;;;;;;5073792;28;20434;-65